sensor_id;sensor_type;location;lat;lon;timestamp;temperature;humidity
14049;DHT22;7099;53.922;10.728;2023-08-06T00:00:26;18.50;66.50
14049;DHT22;7099;53.922;10.728;2023-08-06T00:04:32;18.40;66.60
14049;DHT22;7099;53.922;10.728;2023-08-06T00:08:37;18.40;66.80
14049;DHT22;7099;53.922;10.728;2023-08-06T00:12:43;18.40;67.00
14049;DHT22;7099;53.922;10.728;2023-08-06T00:16:49;18.40;67.40
14049;DHT22;7099;53.922;10.728;2023-08-06T00:20:55;18.30;67.80
14049;DHT22;7099;53.922;10.728;2023-08-06T00:25:01;18.30;68.40
14049;DHT22;7099;53.922;10.728;2023-08-06T00:29:06;18.30;68.60
14049;DHT22;7099;53.922;10.728;2023-08-06T00:33:12;18.30;69.10
14049;DHT22;7099;53.922;10.728;2023-08-06T00:37:17;18.20;69.30
14049;DHT22;7099;53.922;10.728;2023-08-06T00:41:23;18.20;69.80
14049;DHT22;7099;53.922;10.728;2023-08-06T00:45:28;18.20;70.00
14049;DHT22;7099;53.922;10.728;2023-08-06T00:49:38;18.10;70.20
14049;DHT22;7099;53.922;10.728;2023-08-06T00:53:43;17.80;71.30
14049;DHT22;7099;53.922;10.728;2023-08-06T00:57:49;17.50;72.10
14049;DHT22;7099;53.922;10.728;2023-08-06T01:01:56;17.30;72.20
14049;DHT22;7099;53.922;10.728;2023-08-06T01:06:01;17.20;72.60
14049;DHT22;7099;53.922;10.728;2023-08-06T01:10:23;17.20;73.10
14049;DHT22;7099;53.922;10.728;2023-08-06T01:14:50;17.10;74.00
14049;DHT22;7099;53.922;10.728;2023-08-06T01:18:59;17.00;74.20
14049;DHT22;7099;53.922;10.728;2023-08-06T01:23:04;16.90;74.30
14049;DHT22;7099;53.922;10.728;2023-08-06T01:27:11;16.90;75.40
14049;DHT22;7099;53.922;10.728;2023-08-06T01:31:22;16.90;74.60
14049;DHT22;7099;53.922;10.728;2023-08-06T01:35:32;16.90;74.80
14049;DHT22;7099;53.922;10.728;2023-08-06T01:39:39;16.90;74.90
14049;DHT22;7099;53.922;10.728;2023-08-06T01:43:45;16.90;75.00
14049;DHT22;7099;53.922;10.728;2023-08-06T01:47:50;16.80;76.00
14049;DHT22;7099;53.922;10.728;2023-08-06T01:51:56;16.80;76.20
14049;DHT22;7099;53.922;10.728;2023-08-06T01:56:01;16.80;75.90
14049;DHT22;7099;53.922;10.728;2023-08-06T02:00:07;16.80;75.80
14049;DHT22;7099;53.922;10.728;2023-08-06T02:04:13;16.70;76.10
14049;DHT22;7099;53.922;10.728;2023-08-06T02:08:18;16.70;76.40
14049;DHT22;7099;53.922;10.728;2023-08-06T02:12:24;16.70;73.60
14049;DHT22;7099;53.922;10.728;2023-08-06T02:16:30;16.70;74.30
14049;DHT22;7099;53.922;10.728;2023-08-06T02:20:35;16.70;74.80
14049;DHT22;7099;53.922;10.728;2023-08-06T02:24:41;16.70;75.10
14049;DHT22;7099;53.922;10.728;2023-08-06T02:28:46;16.70;75.40
14049;DHT22;7099;53.922;10.728;2023-08-06T02:32:52;16.70;75.60
14049;DHT22;7099;53.922;10.728;2023-08-06T02:36:58;16.70;75.60
14049;DHT22;7099;53.922;10.728;2023-08-06T02:41:03;16.70;75.80
14049;DHT22;7099;53.922;10.728;2023-08-06T02:45:09;16.70;76.00
14049;DHT22;7099;53.922;10.728;2023-08-06T02:49:15;16.70;76.30
14049;DHT22;7099;53.922;10.728;2023-08-06T02:53:20;16.60;76.50
14049;DHT22;7099;53.922;10.728;2023-08-06T02:57:26;16.60;76.70
14049;DHT22;7099;53.922;10.728;2023-08-06T03:01:32;16.70;77.10
14049;DHT22;7099;53.922;10.728;2023-08-06T03:05:38;16.70;77.10
14049;DHT22;7099;53.922;10.728;2023-08-06T03:09:44;16.70;77.40
14049;DHT22;7099;53.922;10.728;2023-08-06T03:13:50;16.70;77.60
14049;DHT22;7099;53.922;10.728;2023-08-06T03:17:56;16.70;77.50
14049;DHT22;7099;53.922;10.728;2023-08-06T03:22:02;16.70;77.60
14049;DHT22;7099;53.922;10.728;2023-08-06T03:26:08;16.70;77.70
14049;DHT22;7099;53.922;10.728;2023-08-06T03:30:13;16.70;77.70
14049;DHT22;7099;53.922;10.728;2023-08-06T03:34:19;16.70;77.80
14049;DHT22;7099;53.922;10.728;2023-08-06T03:38:25;16.70;77.90
14049;DHT22;7099;53.922;10.728;2023-08-06T03:42:31;16.70;77.80
14049;DHT22;7099;53.922;10.728;2023-08-06T03:46:36;16.60;78.10
14049;DHT22;7099;53.922;10.728;2023-08-06T03:50:42;16.60;78.10
14049;DHT22;7099;53.922;10.728;2023-08-06T03:54:47;16.70;78.10
14049;DHT22;7099;53.922;10.728;2023-08-06T03:58:53;16.70;78.20
14049;DHT22;7099;53.922;10.728;2023-08-06T04:02:58;16.70;78.20
14049;DHT22;7099;53.922;10.728;2023-08-06T04:07:04;16.70;78.40
14049;DHT22;7099;53.922;10.728;2023-08-06T04:11:10;16.70;78.40
14049;DHT22;7099;53.922;10.728;2023-08-06T04:15:16;16.70;78.50
14049;DHT22;7099;53.922;10.728;2023-08-06T04:19:21;16.80;78.50
14049;DHT22;7099;53.922;10.728;2023-08-06T04:23:27;16.80;78.40
14049;DHT22;7099;53.922;10.728;2023-08-06T04:27:32;16.80;78.50
14049;DHT22;7099;53.922;10.728;2023-08-06T04:31:38;16.80;78.50
14049;DHT22;7099;53.922;10.728;2023-08-06T04:35:43;16.80;78.60
14049;DHT22;7099;53.922;10.728;2023-08-06T04:39:49;16.80;78.60
14049;DHT22;7099;53.922;10.728;2023-08-06T04:43:58;16.80;78.80
14049;DHT22;7099;53.922;10.728;2023-08-06T04:48:03;16.80;79.00
14049;DHT22;7099;53.922;10.728;2023-08-06T04:52:09;16.80;79.00
14049;DHT22;7099;53.922;10.728;2023-08-06T04:56:14;16.90;79.00
14049;DHT22;7099;53.922;10.728;2023-08-06T05:00:20;16.90;78.90
14049;DHT22;7099;53.922;10.728;2023-08-06T05:04:25;16.90;79.00
14049;DHT22;7099;53.922;10.728;2023-08-06T05:08:31;16.90;79.10
14049;DHT22;7099;53.922;10.728;2023-08-06T05:12:37;17.00;79.10
14049;DHT22;7099;53.922;10.728;2023-08-06T05:16:42;17.00;78.90
14049;DHT22;7099;53.922;10.728;2023-08-06T05:20:48;17.00;78.80
14049;DHT22;7099;53.922;10.728;2023-08-06T05:24:53;17.00;78.80
14049;DHT22;7099;53.922;10.728;2023-08-06T05:29:00;17.00;78.70
14049;DHT22;7099;53.922;10.728;2023-08-06T05:33:06;17.10;78.80
14049;DHT22;7099;53.922;10.728;2023-08-06T05:37:12;17.20;79.00
14049;DHT22;7099;53.922;10.728;2023-08-06T05:41:17;17.20;78.90
14049;DHT22;7099;53.922;10.728;2023-08-06T05:45:23;17.20;78.40
14049;DHT22;7099;53.922;10.728;2023-08-06T05:49:28;17.30;78.60
14049;DHT22;7099;53.922;10.728;2023-08-06T05:53:34;17.30;78.60
14049;DHT22;7099;53.922;10.728;2023-08-06T05:57:39;17.30;78.30
14049;DHT22;7099;53.922;10.728;2023-08-06T06:01:45;17.40;78.10
14049;DHT22;7099;53.922;10.728;2023-08-06T06:05:50;17.50;78.00
14049;DHT22;7099;53.922;10.728;2023-08-06T06:09:56;17.50;77.90
14049;DHT22;7099;53.922;10.728;2023-08-06T06:14:02;17.60;77.90
14049;DHT22;7099;53.922;10.728;2023-08-06T06:18:07;17.60;78.40
14049;DHT22;7099;53.922;10.728;2023-08-06T06:22:13;17.70;77.60
14049;DHT22;7099;53.922;10.728;2023-08-06T06:26:19;17.70;77.50
14049;DHT22;7099;53.922;10.728;2023-08-06T06:30:25;17.80;77.50
14049;DHT22;7099;53.922;10.728;2023-08-06T06:34:30;17.90;77.40
14049;DHT22;7099;53.922;10.728;2023-08-06T06:38:36;17.90;77.30
14049;DHT22;7099;53.922;10.728;2023-08-06T06:42:42;18.00;77.20
14049;DHT22;7099;53.922;10.728;2023-08-06T06:46:47;18.10;77.20
14049;DHT22;7099;53.922;10.728;2023-08-06T06:50:53;18.20;77.10
14049;DHT22;7099;53.922;10.728;2023-08-06T06:54:58;18.20;76.90
14049;DHT22;7099;53.922;10.728;2023-08-06T06:59:04;18.30;76.80
14049;DHT22;7099;53.922;10.728;2023-08-06T07:03:09;18.40;76.70
14049;DHT22;7099;53.922;10.728;2023-08-06T07:07:15;18.50;76.20
14049;DHT22;7099;53.922;10.728;2023-08-06T07:11:21;18.60;76.00
14049;DHT22;7099;53.922;10.728;2023-08-06T07:15:26;18.60;75.80
14049;DHT22;7099;53.922;10.728;2023-08-06T07:19:32;18.70;75.90
14049;DHT22;7099;53.922;10.728;2023-08-06T07:23:37;18.80;75.60
14049;DHT22;7099;53.922;10.728;2023-08-06T07:27:43;18.90;75.40
14049;DHT22;7099;53.922;10.728;2023-08-06T07:31:49;19.00;74.80
14049;DHT22;7099;53.922;10.728;2023-08-06T07:35:55;19.20;74.90
14049;DHT22;7099;53.922;10.728;2023-08-06T07:40:01;19.20;74.50
14049;DHT22;7099;53.922;10.728;2023-08-06T07:44:07;19.30;74.30
14049;DHT22;7099;53.922;10.728;2023-08-06T07:48:12;19.90;72.60
14049;DHT22;7099;53.922;10.728;2023-08-06T07:52:18;20.20;72.30
14049;DHT22;7099;53.922;10.728;2023-08-06T07:56:23;20.00;73.10
14049;DHT22;7099;53.922;10.728;2023-08-06T08:00:29;19.90;73.20
14049;DHT22;7099;53.922;10.728;2023-08-06T08:04:34;19.90;73.40
14049;DHT22;7099;53.922;10.728;2023-08-06T08:08:40;20.00;73.10
14049;DHT22;7099;53.922;10.728;2023-08-06T08:12:46;20.10;73.30
14049;DHT22;7099;53.922;10.728;2023-08-06T08:16:52;20.10;72.70
14049;DHT22;7099;53.922;10.728;2023-08-06T08:20:58;20.20;72.90
14049;DHT22;7099;53.922;10.728;2023-08-06T08:25:04;20.30;72.70
14049;DHT22;7099;53.922;10.728;2023-08-06T08:29:10;20.40;72.80
14049;DHT22;7099;53.922;10.728;2023-08-06T08:33:15;20.60;72.30
14049;DHT22;7099;53.922;10.728;2023-08-06T08:37:21;20.70;72.00
14049;DHT22;7099;53.922;10.728;2023-08-06T08:41:31;20.80;71.50
14049;DHT22;7099;53.922;10.728;2023-08-06T08:45:39;20.90;71.70
14049;DHT22;7099;53.922;10.728;2023-08-06T08:49:49;21.00;71.50
14049;DHT22;7099;53.922;10.728;2023-08-06T08:53:55;21.10;71.10
14049;DHT22;7099;53.922;10.728;2023-08-06T08:58:04;21.20;70.50
14049;DHT22;7099;53.922;10.728;2023-08-06T09:02:11;21.20;70.50
14049;DHT22;7099;53.922;10.728;2023-08-06T09:06:19;21.30;70.70
14049;DHT22;7099;53.922;10.728;2023-08-06T09:10:25;21.40;69.80
14049;DHT22;7099;53.922;10.728;2023-08-06T09:14:31;21.60;69.30
14049;DHT22;7099;53.922;10.728;2023-08-06T09:18:39;21.60;69.40
14049;DHT22;7099;53.922;10.728;2023-08-06T09:22:45;21.70;68.60
14049;DHT22;7099;53.922;10.728;2023-08-06T09:26:53;21.80;69.10
14049;DHT22;7099;53.922;10.728;2023-08-06T09:30:59;21.90;68.20
14049;DHT22;7099;53.922;10.728;2023-08-06T09:35:06;22.00;67.60
14049;DHT22;7099;53.922;10.728;2023-08-06T09:39:30;22.10;67.20
14049;DHT22;7099;53.922;10.728;2023-08-06T09:43:43;22.10;66.60
14049;DHT22;7099;53.922;10.728;2023-08-06T09:47:50;22.10;67.00
14049;DHT22;7099;53.922;10.728;2023-08-06T09:51:56;22.20;67.70
14049;DHT22;7099;53.922;10.728;2023-08-06T09:56:03;22.30;66.50
14049;DHT22;7099;53.922;10.728;2023-08-06T10:00:10;22.30;66.40
14049;DHT22;7099;53.922;10.728;2023-08-06T10:04:17;22.40;66.10
14049;DHT22;7099;53.922;10.728;2023-08-06T10:08:29;22.40;65.50
14049;DHT22;7099;53.922;10.728;2023-08-06T10:12:39;22.40;65.40
14049;DHT22;7099;53.922;10.728;2023-08-06T10:16:47;22.50;64.60
14049;DHT22;7099;53.922;10.728;2023-08-06T10:20:53;22.60;64.00
14049;DHT22;7099;53.922;10.728;2023-08-06T10:25:00;22.70;64.80
14049;DHT22;7099;53.922;10.728;2023-08-06T10:29:35;22.80;64.90
14049;DHT22;7099;53.922;10.728;2023-08-06T10:33:46;22.80;64.10
14049;DHT22;7099;53.922;10.728;2023-08-06T10:37:52;22.90;64.40
14049;DHT22;7099;53.922;10.728;2023-08-06T10:41:58;22.90;64.00
14049;DHT22;7099;53.922;10.728;2023-08-06T10:46:21;22.90;64.40
14049;DHT22;7099;53.922;10.728;2023-08-06T10:50:28;22.90;64.20
14049;DHT22;7099;53.922;10.728;2023-08-06T10:54:34;23.00;63.90
14049;DHT22;7099;53.922;10.728;2023-08-06T10:58:41;22.90;63.90
14049;DHT22;7099;53.922;10.728;2023-08-06T11:02:52;23.00;64.00
14049;DHT22;7099;53.922;10.728;2023-08-06T11:06:58;23.10;64.40
14049;DHT22;7099;53.922;10.728;2023-08-06T11:11:11;23.20;63.70
14049;DHT22;7099;53.922;10.728;2023-08-06T11:15:20;23.30;62.40
14049;DHT22;7099;53.922;10.728;2023-08-06T11:19:26;23.40;62.60
14049;DHT22;7099;53.922;10.728;2023-08-06T11:23:32;23.40;62.60
14049;DHT22;7099;53.922;10.728;2023-08-06T11:27:38;23.50;62.30
14049;DHT22;7099;53.922;10.728;2023-08-06T11:31:43;23.60;62.10
14049;DHT22;7099;53.922;10.728;2023-08-06T11:35:49;23.70;62.20
14049;DHT22;7099;53.922;10.728;2023-08-06T11:39:54;23.80;61.40
14049;DHT22;7099;53.922;10.728;2023-08-06T11:44:01;23.80;61.30
14049;DHT22;7099;53.922;10.728;2023-08-06T11:48:08;23.80;60.80
14049;DHT22;7099;53.922;10.728;2023-08-06T11:52:24;23.70;60.30
14049;DHT22;7099;53.922;10.728;2023-08-06T11:56:30;23.70;60.10
14049;DHT22;7099;53.922;10.728;2023-08-06T12:00:36;23.80;59.90
14049;DHT22;7099;53.922;10.728;2023-08-06T12:09:15;24.20;58.00
14049;DHT22;7099;53.922;10.728;2023-08-06T12:13:22;24.10;57.60
14049;DHT22;7099;53.922;10.728;2023-08-06T12:17:28;24.50;55.30
14049;DHT22;7099;53.922;10.728;2023-08-06T12:21:33;24.70;54.10
14049;DHT22;7099;53.922;10.728;2023-08-06T12:25:39;24.80;52.90
14049;DHT22;7099;53.922;10.728;2023-08-06T12:29:47;24.90;53.90
14049;DHT22;7099;53.922;10.728;2023-08-06T12:33:53;24.80;54.00
14049;DHT22;7099;53.922;10.728;2023-08-06T12:37:59;24.90;53.60
14049;DHT22;7099;53.922;10.728;2023-08-06T12:42:05;24.80;53.90
14049;DHT22;7099;53.922;10.728;2023-08-06T12:46:14;24.70;54.00
14049;DHT22;7099;53.922;10.728;2023-08-06T12:50:20;24.70;53.90
14049;DHT22;7099;53.922;10.728;2023-08-06T12:54:26;24.60;53.60
14049;DHT22;7099;53.922;10.728;2023-08-06T12:58:33;24.70;54.50
14049;DHT22;7099;53.922;10.728;2023-08-06T13:02:39;24.80;53.80
14049;DHT22;7099;53.922;10.728;2023-08-06T13:06:45;24.80;54.20
14049;DHT22;7099;53.922;10.728;2023-08-06T13:10:50;24.70;54.10
14049;DHT22;7099;53.922;10.728;2023-08-06T13:14:56;24.50;53.70
14049;DHT22;7099;53.922;10.728;2023-08-06T13:19:05;24.50;53.10
14049;DHT22;7099;53.922;10.728;2023-08-06T13:23:11;24.50;53.10
14049;DHT22;7099;53.922;10.728;2023-08-06T13:27:17;24.50;53.90
14049;DHT22;7099;53.922;10.728;2023-08-06T13:31:23;24.50;53.70
14049;DHT22;7099;53.922;10.728;2023-08-06T13:35:28;24.50;53.80
14049;DHT22;7099;53.922;10.728;2023-08-06T13:39:34;24.60;53.80
14049;DHT22;7099;53.922;10.728;2023-08-06T13:43:40;24.50;54.50
14049;DHT22;7099;53.922;10.728;2023-08-06T13:47:45;24.60;53.90
14049;DHT22;7099;53.922;10.728;2023-08-06T13:51:51;24.70;52.90
14049;DHT22;7099;53.922;10.728;2023-08-06T13:55:57;24.70;52.90
14049;DHT22;7099;53.922;10.728;2023-08-06T14:00:03;24.60;52.40
14049;DHT22;7099;53.922;10.728;2023-08-06T14:04:10;24.50;51.60
14049;DHT22;7099;53.922;10.728;2023-08-06T14:08:17;24.50;52.00
14049;DHT22;7099;53.922;10.728;2023-08-06T14:12:25;24.50;51.30
14049;DHT22;7099;53.922;10.728;2023-08-06T14:16:31;24.50;51.60
14049;DHT22;7099;53.922;10.728;2023-08-06T14:20:36;24.70;52.70
14049;DHT22;7099;53.922;10.728;2023-08-06T14:24:42;24.90;51.80
14049;DHT22;7099;53.922;10.728;2023-08-06T14:28:47;25.00;52.00
14049;DHT22;7099;53.922;10.728;2023-08-06T14:32:53;25.00;51.20
14049;DHT22;7099;53.922;10.728;2023-08-06T14:36:58;25.20;51.00
14049;DHT22;7099;53.922;10.728;2023-08-06T14:41:04;25.20;50.80
14049;DHT22;7099;53.922;10.728;2023-08-06T14:45:10;25.10;50.90
14049;DHT22;7099;53.922;10.728;2023-08-06T14:49:15;25.20;50.50
14049;DHT22;7099;53.922;10.728;2023-08-06T14:53:21;25.20;51.70
14049;DHT22;7099;53.922;10.728;2023-08-06T14:57:26;25.30;50.90
14049;DHT22;7099;53.922;10.728;2023-08-06T15:01:33;25.20;50.80
14049;DHT22;7099;53.922;10.728;2023-08-06T15:05:39;25.20;51.10
14049;DHT22;7099;53.922;10.728;2023-08-06T15:09:44;25.20;51.20
14049;DHT22;7099;53.922;10.728;2023-08-06T15:14:10;25.20;51.20
14049;DHT22;7099;53.922;10.728;2023-08-06T15:18:16;25.10;51.80
14049;DHT22;7099;53.922;10.728;2023-08-06T15:22:22;25.00;51.80
14049;DHT22;7099;53.922;10.728;2023-08-06T15:26:28;25.00;51.90
14049;DHT22;7099;53.922;10.728;2023-08-06T15:30:33;24.90;51.60
14049;DHT22;7099;53.922;10.728;2023-08-06T15:34:39;24.70;52.70
14049;DHT22;7099;53.922;10.728;2023-08-06T15:38:45;24.70;52.60
14049;DHT22;7099;53.922;10.728;2023-08-06T15:42:50;24.60;53.60
14049;DHT22;7099;53.922;10.728;2023-08-06T15:46:56;24.60;53.20
14049;DHT22;7099;53.922;10.728;2023-08-06T15:51:02;24.50;54.30
14049;DHT22;7099;53.922;10.728;2023-08-06T15:55:08;24.50;54.40
14049;DHT22;7099;53.922;10.728;2023-08-06T15:59:25;24.40;54.20
14049;DHT22;7099;53.922;10.728;2023-08-06T16:03:32;24.30;54.60
14049;DHT22;7099;53.922;10.728;2023-08-06T16:07:37;24.30;54.80
14049;DHT22;7099;53.922;10.728;2023-08-06T16:11:44;24.30;54.20
14049;DHT22;7099;53.922;10.728;2023-08-06T16:15:50;24.20;52.40
14049;DHT22;7099;53.922;10.728;2023-08-06T16:19:56;24.10;52.40
14049;DHT22;7099;53.922;10.728;2023-08-06T16:24:02;24.00;52.60
14049;DHT22;7099;53.922;10.728;2023-08-06T16:28:09;24.00;52.10
14049;DHT22;7099;53.922;10.728;2023-08-06T16:32:15;23.70;52.30
14049;DHT22;7099;53.922;10.728;2023-08-06T16:36:20;23.70;51.90
14049;DHT22;7099;53.922;10.728;2023-08-06T16:40:26;23.60;51.50
14049;DHT22;7099;53.922;10.728;2023-08-06T16:44:31;23.50;52.10
14049;DHT22;7099;53.922;10.728;2023-08-06T16:48:37;23.40;52.20
14049;DHT22;7099;53.922;10.728;2023-08-06T16:52:43;23.40;52.20
14049;DHT22;7099;53.922;10.728;2023-08-06T16:56:48;23.30;52.20
14049;DHT22;7099;53.922;10.728;2023-08-06T17:00:54;23.30;51.60
14049;DHT22;7099;53.922;10.728;2023-08-06T17:05:01;23.10;52.00
14049;DHT22;7099;53.922;10.728;2023-08-06T17:09:06;23.10;51.40
14049;DHT22;7099;53.922;10.728;2023-08-06T17:13:12;23.00;51.60
14049;DHT22;7099;53.922;10.728;2023-08-06T17:17:25;22.80;52.60
14049;DHT22;7099;53.922;10.728;2023-08-06T17:21:31;22.80;52.50
14049;DHT22;7099;53.922;10.728;2023-08-06T17:25:43;22.70;53.00
14049;DHT22;7099;53.922;10.728;2023-08-06T17:29:49;22.70;54.50
14049;DHT22;7099;53.922;10.728;2023-08-06T17:33:54;22.70;55.40
14049;DHT22;7099;53.922;10.728;2023-08-06T17:38:00;22.60;55.30
14049;DHT22;7099;53.922;10.728;2023-08-06T17:42:06;22.60;57.40
14049;DHT22;7099;53.922;10.728;2023-08-06T17:46:15;22.40;61.20
14049;DHT22;7099;53.922;10.728;2023-08-06T17:50:21;22.30;62.30
14049;DHT22;7099;53.922;10.728;2023-08-06T17:54:27;22.20;63.00
14049;DHT22;7099;53.922;10.728;2023-08-06T17:58:32;22.20;63.40
14049;DHT22;7099;53.922;10.728;2023-08-06T18:02:37;22.10;64.40
14049;DHT22;7099;53.922;10.728;2023-08-06T18:06:44;22.00;63.40
14049;DHT22;7099;53.922;10.728;2023-08-06T18:10:50;21.90;64.30
14049;DHT22;7099;53.922;10.728;2023-08-06T18:14:56;21.80;63.20
14049;DHT22;7099;53.922;10.728;2023-08-06T18:19:03;21.40;64.20
14049;DHT22;7099;53.922;10.728;2023-08-06T18:23:08;21.00;64.20
14049;DHT22;7099;53.922;10.728;2023-08-06T18:27:14;20.90;64.50
14049;DHT22;7099;53.922;10.728;2023-08-06T18:31:22;20.70;64.30
14049;DHT22;7099;53.922;10.728;2023-08-06T18:35:28;20.60;64.50
14049;DHT22;7099;53.922;10.728;2023-08-06T18:39:34;20.50;64.20
14049;DHT22;7099;53.922;10.728;2023-08-06T18:43:40;20.50;64.30
14049;DHT22;7099;53.922;10.728;2023-08-06T18:47:47;20.30;65.70
14049;DHT22;7099;53.922;10.728;2023-08-06T18:51:52;20.20;66.40
14049;DHT22;7099;53.922;10.728;2023-08-06T18:55:58;20.10;66.80
14049;DHT22;7099;53.922;10.728;2023-08-06T19:00:04;20.00;67.20
14049;DHT22;7099;53.922;10.728;2023-08-06T19:04:10;19.90;67.20
14049;DHT22;7099;53.922;10.728;2023-08-06T19:08:15;19.80;67.80
14049;DHT22;7099;53.922;10.728;2023-08-06T19:12:21;19.70;68.30
14049;DHT22;7099;53.922;10.728;2023-08-06T19:16:26;19.70;68.50
14049;DHT22;7099;53.922;10.728;2023-08-06T19:20:32;19.60;68.40
14049;DHT22;7099;53.922;10.728;2023-08-06T19:24:40;19.50;68.60
14049;DHT22;7099;53.922;10.728;2023-08-06T19:28:45;19.40;69.10
14049;DHT22;7099;53.922;10.728;2023-08-06T19:32:51;19.30;69.80
14049;DHT22;7099;53.922;10.728;2023-08-06T19:36:56;19.20;69.80
14049;DHT22;7099;53.922;10.728;2023-08-06T19:41:06;19.00;70.00
14049;DHT22;7099;53.922;10.728;2023-08-06T19:45:15;18.90;70.10
14049;DHT22;7099;53.922;10.728;2023-08-06T19:49:20;18.80;70.40
14049;DHT22;7099;53.922;10.728;2023-08-06T19:53:30;18.70;70.60
14049;DHT22;7099;53.922;10.728;2023-08-06T19:57:36;18.70;70.70
14049;DHT22;7099;53.922;10.728;2023-08-06T20:01:42;18.60;71.10
14049;DHT22;7099;53.922;10.728;2023-08-06T20:05:50;18.60;71.00
14049;DHT22;7099;53.922;10.728;2023-08-06T20:09:56;18.60;71.30
14049;DHT22;7099;53.922;10.728;2023-08-06T20:14:01;18.60;72.20
14049;DHT22;7099;53.922;10.728;2023-08-06T20:18:07;18.50;73.10
14049;DHT22;7099;53.922;10.728;2023-08-06T20:22:14;18.60;73.50
14049;DHT22;7099;53.922;10.728;2023-08-06T20:26:20;18.50;74.10
14049;DHT22;7099;53.922;10.728;2023-08-06T20:30:25;18.50;74.30
14049;DHT22;7099;53.922;10.728;2023-08-06T20:34:31;18.50;74.20
14049;DHT22;7099;53.922;10.728;2023-08-06T20:38:36;18.40;74.10
14049;DHT22;7099;53.922;10.728;2023-08-06T20:42:43;18.40;74.10
14049;DHT22;7099;53.922;10.728;2023-08-06T20:46:49;18.30;74.10
14049;DHT22;7099;53.922;10.728;2023-08-06T20:50:57;18.20;74.50
14049;DHT22;7099;53.922;10.728;2023-08-06T20:55:03;18.20;75.10
14049;DHT22;7099;53.922;10.728;2023-08-06T20:59:09;18.10;75.10
14049;DHT22;7099;53.922;10.728;2023-08-06T21:03:14;18.10;75.30
14049;DHT22;7099;53.922;10.728;2023-08-06T21:07:20;18.10;75.40
14049;DHT22;7099;53.922;10.728;2023-08-06T21:11:25;18.00;75.50
14049;DHT22;7099;53.922;10.728;2023-08-06T21:15:31;17.90;75.80
14049;DHT22;7099;53.922;10.728;2023-08-06T21:19:36;17.90;76.30
14049;DHT22;7099;53.922;10.728;2023-08-06T21:23:42;17.90;76.40
14049;DHT22;7099;53.922;10.728;2023-08-06T21:27:48;17.90;76.50
14049;DHT22;7099;53.922;10.728;2023-08-06T21:31:53;17.80;76.60
14049;DHT22;7099;53.922;10.728;2023-08-06T21:36:00;17.80;76.80
14049;DHT22;7099;53.922;10.728;2023-08-06T21:40:10;17.70;77.00
14049;DHT22;7099;53.922;10.728;2023-08-06T21:44:16;18.10;77.70
14049;DHT22;7099;53.922;10.728;2023-08-06T21:48:21;18.20;77.40
14049;DHT22;7099;53.922;10.728;2023-08-06T21:52:29;18.30;77.20
14049;DHT22;7099;53.922;10.728;2023-08-06T21:56:34;18.30;76.90
14049;DHT22;7099;53.922;10.728;2023-08-06T22:00:40;18.30;76.70
14049;DHT22;7099;53.922;10.728;2023-08-06T22:04:46;18.30;77.20
14049;DHT22;7099;53.922;10.728;2023-08-06T22:08:51;18.30;76.80
14049;DHT22;7099;53.922;10.728;2023-08-06T22:12:58;18.30;76.80
14049;DHT22;7099;53.922;10.728;2023-08-06T22:17:04;18.20;76.80
14049;DHT22;7099;53.922;10.728;2023-08-06T22:21:10;18.20;77.00
14049;DHT22;7099;53.922;10.728;2023-08-06T22:25:15;18.20;77.00
14049;DHT22;7099;53.922;10.728;2023-08-06T22:29:21;18.20;76.90
14049;DHT22;7099;53.922;10.728;2023-08-06T22:33:26;18.20;77.00
14049;DHT22;7099;53.922;10.728;2023-08-06T22:37:35;18.10;77.00
14049;DHT22;7099;53.922;10.728;2023-08-06T22:41:41;18.10;77.10
14049;DHT22;7099;53.922;10.728;2023-08-06T22:45:46;18.10;77.20
14049;DHT22;7099;53.922;10.728;2023-08-06T22:49:52;18.10;77.00
14049;DHT22;7099;53.922;10.728;2023-08-06T22:53:58;18.10;76.90
14049;DHT22;7099;53.922;10.728;2023-08-06T22:58:03;18.00;76.70
14049;DHT22;7099;53.922;10.728;2023-08-06T23:02:09;18.00;77.10
14049;DHT22;7099;53.922;10.728;2023-08-06T23:06:14;18.00;76.60
14049;DHT22;7099;53.922;10.728;2023-08-06T23:10:20;17.90;76.50
14049;DHT22;7099;53.922;10.728;2023-08-06T23:14:28;17.90;76.60
14049;DHT22;7099;53.922;10.728;2023-08-06T23:18:33;17.80;76.30
14049;DHT22;7099;53.922;10.728;2023-08-06T23:22:39;17.80;76.30
14049;DHT22;7099;53.922;10.728;2023-08-06T23:26:45;17.80;76.30
14049;DHT22;7099;53.922;10.728;2023-08-06T23:30:50;17.80;76.20
14049;DHT22;7099;53.922;10.728;2023-08-06T23:34:57;17.70;76.00
14049;DHT22;7099;53.922;10.728;2023-08-06T23:39:03;17.70;76.00
14049;DHT22;7099;53.922;10.728;2023-08-06T23:43:09;17.70;76.20
14049;DHT22;7099;53.922;10.728;2023-08-06T23:47:15;17.60;75.90
14049;DHT22;7099;53.922;10.728;2023-08-06T23:51:20;17.60;76.00
14049;DHT22;7099;53.922;10.728;2023-08-06T23:55:28;17.70;75.90
14049;DHT22;7099;53.922;10.728;2023-08-06T23:59:34;17.60;76.00
